ABR829 KLAX-EGAA
Flight info
| Callsign | ABR829 |
|---|---|
| Flight time | N/A |
| Altitude | 29000 |
| Route | ORCKA5 BEALE Q842 WINEN/N0498F310 DCT DTA DCT LOFOG DCT BXTER DCT BOY DCT HERKA DCT KIXCO DCT HASOS DCT GOVAB DCT IKLIN/N0494F330 DCT KAIIN DCT 57N090W DCT DUGNO DCT TEFFO/M085F350 DCT EMBOK DCT 63N050W 62N040W 61N030W 59N020W DCT SUNOT/N0487F350 DCT KESIX DCT LUTOV DCT NIPIT DCT TUGSI DCT DEGOS DCT BELZU |
| Aircraft | B742/H-SDE3FGHIM1M2RWXY/LB1 |
Departure
| Time | 2026-05-06 05:55 |
|---|---|
| Airport | Los Angeles International Airport (KLAX) |
Arrival
| Time | N/A |
|---|---|
| Airport | Belfast International Airport (EGAA) |
| Time | Latitude | Longitude | Altitude | Speed | Heading |
|---|---|---|---|---|---|
| 2026-05-06 05:24 | 33.93378 | -118.39159 | 108 ft | 0 kts | 180° |
| 2026-05-06 05:39 | 33.93387 | -118.39159 | 108 ft | 2 kts | 180° |
| 2026-05-06 05:39 | 33.93402 | -118.39159 | 108 ft | 2 kts | 180° |
| 2026-05-06 05:39 | 33.93418 | -118.39159 | 108 ft | 2 kts | 180° |
| 2026-05-06 05:39 | 33.93433 | -118.39159 | 108 ft | 2 kts | 180° |
| 2026-05-06 05:40 | 33.93449 | -118.39159 | 108 ft | 2 kts | 180° |
| 2026-05-06 05:40 | 33.93464 | -118.39159 | 108 ft | 2 kts | 180° |
| 2026-05-06 05:40 | 33.93480 | -118.39159 | 108 ft | 2 kts | 180° |
| 2026-05-06 05:40 | 33.93495 | -118.39161 | 108 ft | 2 kts | 160° |
| 2026-05-06 05:41 | 33.93507 | -118.39171 | 108 ft | 2 kts | 133° |
| 2026-05-06 05:41 | 33.93515 | -118.39185 | 108 ft | 2 kts | 109° |
| 2026-05-06 05:41 | 33.93517 | -118.39202 | 108 ft | 2 kts | 84° |
| 2026-05-06 05:41 | 33.93515 | -118.39220 | 108 ft | 2 kts | 81° |
| 2026-05-06 05:42 | 33.93513 | -118.39236 | 108 ft | 1 kts | 83° |
| 2026-05-06 05:42 | 33.93513 | -118.39239 | 108 ft | 0 kts | 83° |
| 2026-05-06 05:47 | 33.93513 | -118.39238 | 108 ft | 0 kts | 83° |
| 2026-05-06 05:47 | 33.93515 | -118.39219 | 108 ft | 3 kts | 83° |
| 2026-05-06 05:47 | 33.93519 | -118.39181 | 108 ft | 5 kts | 82° |
| 2026-05-06 05:47 | 33.93526 | -118.39127 | 108 ft | 7 kts | 82° |
| 2026-05-06 05:48 | 33.93533 | -118.39056 | 108 ft | 9 kts | 83° |
| 2026-05-06 05:48 | 33.93543 | -118.38966 | 107 ft | 11 kts | 83° |
| 2026-05-06 05:48 | 33.93554 | -118.38867 | 105 ft | 12 kts | 82° |
| 2026-05-06 05:48 | 33.93564 | -118.38769 | 105 ft | 11 kts | 84° |
| 2026-05-06 05:49 | 33.93572 | -118.38683 | 105 ft | 9 kts | 84° |
| 2026-05-06 05:49 | 33.93579 | -118.38609 | 105 ft | 8 kts | 83° |
| 2026-05-06 05:49 | 33.93585 | -118.38546 | 105 ft | 7 kts | 83° |
| 2026-05-06 05:49 | 33.93591 | -118.38483 | 105 ft | 7 kts | 83° |
| 2026-05-06 05:50 | 33.93598 | -118.38425 | 104 ft | 7 kts | 82° |
| 2026-05-06 05:50 | 33.93605 | -118.38361 | 103 ft | 7 kts | 83° |
| 2026-05-06 05:50 | 33.93620 | -118.38296 | 102 ft | 8 kts | 47° |
| 2026-05-06 05:50 | 33.93677 | -118.38285 | 102 ft | 9 kts | 354° |
| 2026-05-06 05:51 | 33.93751 | -118.38296 | 102 ft | 11 kts | 352° |
| 2026-05-06 05:51 | 33.93832 | -118.38308 | 102 ft | 11 kts | 354° |
| 2026-05-06 05:51 | 33.93912 | -118.38319 | 102 ft | 11 kts | 352° |
| 2026-05-06 05:51 | 33.93986 | -118.38332 | 102 ft | 9 kts | 354° |
| 2026-05-06 05:52 | 33.94040 | -118.38316 | 102 ft | 7 kts | 49° |
| 2026-05-06 05:52 | 33.94056 | -118.38261 | 102 ft | 6 kts | 77° |
| 2026-05-06 05:52 | 33.94063 | -118.38206 | 102 ft | 6 kts | 85° |
| 2026-05-06 05:52 | 33.94068 | -118.38149 | 102 ft | 6 kts | 84° |
| 2026-05-06 05:53 | 33.94072 | -118.38100 | 102 ft | 5 kts | 83° |
| 2026-05-06 05:53 | 33.94076 | -118.38055 | 102 ft | 5 kts | 90° |
| 2026-05-06 05:53 | 33.94057 | -118.38012 | 102 ft | 6 kts | 149° |
| 2026-05-06 05:53 | 33.94013 | -118.38003 | 102 ft | 6 kts | 189° |
| 2026-05-06 05:54 | 33.93982 | -118.38034 | 102 ft | 5 kts | 247° |
| 2026-05-06 05:54 | 33.93977 | -118.38075 | 102 ft | 4 kts | 265° |
| 2026-05-06 05:54 | 33.93966 | -118.38203 | 102 ft | 34 kts | 263° |
| 2026-05-06 05:54 | 33.93911 | -118.38725 | 105 ft | 91 kts | 263° |
| 2026-05-06 05:55 | 33.93808 | -118.39727 | 113 ft | 146 kts | 263° |
| 2026-05-06 05:55 | 33.93662 | -118.41139 | 133 ft | 192 kts | 263° |
| 2026-05-06 05:55 | 33.93483 | -118.42787 | 460 ft | 204 kts | 264° |
| 2026-05-06 05:55 | 33.93290 | -118.44521 | 931 ft | 212 kts | 264° |
| 2026-05-06 05:56 | 33.93032 | -118.46280 | 1413 ft | 223 kts | 252° |
| 2026-05-06 05:56 | 33.92464 | -118.48030 | 2081 ft | 224 kts | 250° |
| 2026-05-06 05:56 | 33.91885 | -118.49756 | 2804 ft | 222 kts | 249° |
| 2026-05-06 05:56 | 33.91320 | -118.51438 | 3492 ft | 220 kts | 250° |
| 2026-05-06 05:57 | 33.90761 | -118.53134 | 3943 ft | 217 kts | 249° |
| 2026-05-06 05:57 | 33.90197 | -118.54828 | 4223 ft | 222 kts | 249° |
| 2026-05-06 05:57 | 33.89607 | -118.56606 | 4398 ft | 233 kts | 249° |
| 2026-05-06 05:57 | 33.88986 | -118.58476 | 4491 ft | 247 kts | 249° |
| 2026-05-06 05:58 | 33.88347 | -118.60403 | 4714 ft | 251 kts | 250° |
| 2026-05-06 05:58 | 33.87694 | -118.62374 | 4960 ft | 254 kts | 250° |
| 2026-05-06 05:58 | 33.87043 | -118.64342 | 5201 ft | 258 kts | 250° |
| 2026-05-06 05:58 | 33.86369 | -118.66354 | 5445 ft | 262 kts | 248° |
| 2026-05-06 05:59 | 33.85643 | -118.68403 | 5684 ft | 268 kts | 248° |
| 2026-05-06 05:59 | 33.84900 | -118.70476 | 5916 ft | 278 kts | 248° |
| 2026-05-06 05:59 | 33.84124 | -118.72642 | 6163 ft | 287 kts | 248° |
| 2026-05-06 05:59 | 33.83035 | -118.74694 | 6399 ft | 298 kts | 223° |
| 2026-05-06 06:00 | 33.81301 | -118.76077 | 6646 ft | 309 kts | 204° |
| 2026-05-06 06:00 | 33.79195 | -118.76733 | 6903 ft | 320 kts | 185° |
| 2026-05-06 06:00 | 33.76958 | -118.76552 | 7190 ft | 330 kts | 166° |
| 2026-05-06 06:00 | 33.74781 | -118.75510 | 7480 ft | 339 kts | 148° |
| 2026-05-06 06:01 | 33.72957 | -118.73729 | 7763 ft | 347 kts | 131° |
| 2026-05-06 06:01 | 33.71595 | -118.71300 | 8050 ft | 353 kts | 114° |
| 2026-05-06 06:01 | 33.70866 | -118.68501 | 8332 ft | 359 kts | 97° |
| 2026-05-06 06:01 | 33.70820 | -118.65508 | 8617 ft | 363 kts | 81° |
| 2026-05-06 06:02 | 33.71484 | -118.62563 | 8903 ft | 366 kts | 64° |
| 2026-05-06 06:02 | 33.72818 | -118.59946 | 9251 ft | 367 kts | 48° |
| 2026-05-06 06:02 | 33.74676 | -118.57851 | 9625 ft | 368 kts | 36° |
| 2026-05-06 06:02 | 33.76778 | -118.56096 | 9993 ft | 372 kts | 32° |
| 2026-05-06 06:03 | 33.78977 | -118.54431 | 10362 ft | 376 kts | 31° |
| 2026-05-06 06:03 | 33.81197 | -118.52781 | 10680 ft | 382 kts | 31° |
| 2026-05-06 06:03 | 33.83425 | -118.51012 | 10993 ft | 387 kts | 37° |
| 2026-05-06 06:03 | 33.85434 | -118.48846 | 11316 ft | 393 kts | 43° |
| 2026-05-06 06:04 | 33.87372 | -118.46487 | 11695 ft | 396 kts | 44° |
| 2026-05-06 06:04 | 33.89273 | -118.44126 | 12112 ft | 397 kts | 44° |
| 2026-05-06 06:04 | 33.91211 | -118.41735 | 12534 ft | 399 kts | 44° |
| 2026-05-06 06:04 | 33.93153 | -118.39361 | 12954 ft | 399 kts | 44° |
| 2026-05-06 06:05 | 33.95092 | -118.37001 | 13371 ft | 400 kts | 44° |
| 2026-05-06 06:05 | 33.97059 | -118.34614 | 13789 ft | 401 kts | 44° |
| 2026-05-06 06:05 | 33.99004 | -118.32232 | 14120 ft | 403 kts | 45° |
| 2026-05-06 06:05 | 34.00860 | -118.29697 | 14457 ft | 405 kts | 51° |
| 2026-05-06 06:06 | 34.02544 | -118.26961 | 14800 ft | 407 kts | 54° |
| 2026-05-06 06:06 | 34.04162 | -118.24149 | 15121 ft | 409 kts | 54° |
| 2026-05-06 06:06 | 34.05752 | -118.21330 | 15436 ft | 411 kts | 55° |
| 2026-05-06 06:06 | 34.07367 | -118.18459 | 15747 ft | 413 kts | 55° |
| 2026-05-06 06:07 | 34.08969 | -118.15614 | 16048 ft | 415 kts | 54° |
| 2026-05-06 06:07 | 34.10594 | -118.12734 | 16348 ft | 417 kts | 55° |
| 2026-05-06 06:07 | 34.12239 | -118.09817 | 16660 ft | 419 kts | 55° |
| 2026-05-06 06:07 | 34.13872 | -118.06919 | 16958 ft | 421 kts | 54° |
| 2026-05-06 06:08 | 34.15517 | -118.04002 | 17273 ft | 422 kts | 54° |
| 2026-05-06 06:08 | 34.17170 | -118.01069 | 17584 ft | 424 kts | 55° |
| 2026-05-06 06:08 | 34.18818 | -117.98143 | 17894 ft | 426 kts | 55° |
| 2026-05-06 06:08 | 34.20500 | -117.95155 | 18219 ft | 428 kts | 55° |
| 2026-05-06 06:09 | 34.22165 | -117.92196 | 18581 ft | 429 kts | 55° |
| 2026-05-06 06:09 | 34.23833 | -117.89226 | 18902 ft | 431 kts | 55° |
| 2026-05-06 06:09 | 34.25513 | -117.86236 | 19275 ft | 432 kts | 55° |
| 2026-05-06 06:09 | 34.27191 | -117.83247 | 19642 ft | 433 kts | 55° |
| 2026-05-06 06:10 | 34.28880 | -117.80234 | 20005 ft | 435 kts | 55° |
| 2026-05-06 06:10 | 34.30575 | -117.77210 | 20359 ft | 436 kts | 55° |
| 2026-05-06 06:10 | 34.32283 | -117.74159 | 20733 ft | 438 kts | 55° |
| 2026-05-06 06:10 | 34.33967 | -117.71088 | 21108 ft | 440 kts | 58° |
| 2026-05-06 06:11 | 34.35379 | -117.67809 | 21474 ft | 442 kts | 64° |
| 2026-05-06 06:11 | 34.36604 | -117.64410 | 21885 ft | 443 kts | 66° |
| 2026-05-06 06:11 | 34.37761 | -117.60957 | 22245 ft | 445 kts | 67° |
| 2026-05-06 06:11 | 34.38898 | -117.57479 | 22619 ft | 446 kts | 67° |
| 2026-05-06 06:12 | 34.40032 | -117.53986 | 22989 ft | 448 kts | 67° |
| 2026-05-06 06:12 | 34.41171 | -117.50478 | 23368 ft | 450 kts | 67° |
| 2026-05-06 06:12 | 34.42314 | -117.46958 | 23750 ft | 451 kts | 67° |
| 2026-05-06 06:12 | 34.43462 | -117.43430 | 24157 ft | 452 kts | 67° |
| 2026-05-06 06:13 | 34.44612 | -117.39893 | 24507 ft | 453 kts | 67° |
| 2026-05-06 06:13 | 34.45764 | -117.36349 | 24842 ft | 455 kts | 67° |
| 2026-05-06 06:13 | 34.46927 | -117.32753 | 25162 ft | 457 kts | 68° |
| 2026-05-06 06:13 | 34.48058 | -117.29196 | 25473 ft | 459 kts | 68° |